createdAt,value
2018-05-14T00:02:08.858Z,13.40
2018-05-14T00:04:36.318Z,13.40
2018-05-14T00:07:03.849Z,13.40
2018-05-14T00:09:31.338Z,13.40
2018-05-14T00:11:58.838Z,13.40
2018-05-14T00:14:26.317Z,13.40
2018-05-14T00:16:53.815Z,13.40
2018-05-14T00:19:21.304Z,13.40
2018-05-14T00:21:49.580Z,13.40
2018-05-14T00:24:17.060Z,13.40
2018-05-14T00:26:44.561Z,13.40
2018-05-14T00:29:12.064Z,13.40
2018-05-14T00:31:39.563Z,13.40
2018-05-14T00:34:07.064Z,13.40
2018-05-14T00:36:35.317Z,13.30
2018-05-14T00:39:02.835Z,13.30
2018-05-14T00:41:30.328Z,13.30
2018-05-14T00:43:57.822Z,13.30
2018-05-14T00:46:25.302Z,13.20
2018-05-14T00:48:52.804Z,13.20
2018-05-14T00:51:20.321Z,13.20
2018-05-14T00:53:47.838Z,13.20
2018-05-14T00:56:16.089Z,13.20
2018-05-14T00:58:43.617Z,13.10
2018-05-14T01:01:11.114Z,13.10
2018-05-14T01:03:38.634Z,13.10
2018-05-14T01:06:06.157Z,13.10
2018-05-14T01:08:33.651Z,13.10
2018-05-14T01:11:01.164Z,13.10
2018-05-14T01:13:29.426Z,13.10
2018-05-14T01:15:56.943Z,13.00
2018-05-14T01:18:24.431Z,13.10
2018-05-14T01:20:51.929Z,13.10
2018-05-14T01:23:19.414Z,13.10
2018-05-14T01:25:46.923Z,13.00
2018-05-14T01:28:14.534Z,13.00
2018-05-14T01:30:41.950Z,13.00
2018-05-14T01:33:10.189Z,13.00
2018-05-14T01:35:37.699Z,13.00
2018-05-14T01:38:05.193Z,13.00
2018-05-14T01:40:32.824Z,13.00
2018-05-14T01:43:00.300Z,13.00
2018-05-14T01:45:27.776Z,13.00
2018-05-14T01:47:55.270Z,12.90
2018-05-14T01:50:23.516Z,13.00
2018-05-14T01:52:51.028Z,13.00
2018-05-14T01:55:18.515Z,13.00
2018-05-14T01:57:46.017Z,13.00
2018-05-14T02:00:14.280Z,13.00
2018-05-14T02:02:41.782Z,13.00
2018-05-14T02:05:09.254Z,13.00
2018-05-14T02:07:36.753Z,13.00
2018-05-14T02:10:04.302Z,13.00
2018-05-14T02:12:31.819Z,13.00
2018-05-14T02:14:59.293Z,13.00
2018-05-14T02:17:26.807Z,13.00
2018-05-14T02:19:55.059Z,13.00
2018-05-14T02:22:22.572Z,13.00
2018-05-14T02:24:50.062Z,13.00
2018-05-14T02:27:17.546Z,13.00
2018-05-14T02:29:45.051Z,13.00
2018-05-14T02:32:12.551Z,13.00
2018-05-14T02:34:40.165Z,13.00
2018-05-14T02:37:07.654Z,13.00
2018-05-14T02:39:35.177Z,13.00
2018-05-14T02:42:02.649Z,13.00
2018-05-14T02:44:30.157Z,13.00
2018-05-14T02:46:57.639Z,12.90
2018-05-14T02:49:25.175Z,12.90
2018-05-14T02:51:52.641Z,13.00
2018-05-14T02:54:20.992Z,13.00
2018-05-14T02:56:49.151Z,13.00
2018-05-14T02:59:16.661Z,13.00
2018-05-14T03:01:44.976Z,12.90
2018-05-14T03:04:12.483Z,12.90
2018-05-14T03:06:40.732Z,12.90
2018-05-14T03:09:08.232Z,12.90
2018-05-14T03:11:35.724Z,12.90
2018-05-14T03:14:03.263Z,12.90
2018-05-14T03:16:30.741Z,12.90
2018-05-14T03:18:58.360Z,12.90
2018-05-14T03:21:25.864Z,12.80
2018-05-14T03:23:53.349Z,12.90
2018-05-14T03:26:20.836Z,12.90
2018-05-14T03:28:48.329Z,12.90
2018-05-14T03:31:15.852Z,12.90
2018-05-14T03:33:44.100Z,12.90
2018-05-14T03:36:11.609Z,12.90
2018-05-14T03:38:39.095Z,12.90
2018-05-14T03:41:06.602Z,13.00
2018-05-14T03:43:34.870Z,12.90
2018-05-14T03:46:03.152Z,12.90
2018-05-14T03:48:31.392Z,13.00
2018-05-14T03:50:59.624Z,12.90
2018-05-14T03:53:27.097Z,12.90
2018-05-14T03:55:54.583Z,12.90
2018-05-14T03:58:42.751Z,12.90
2018-05-14T04:01:14.522Z,12.90
2018-05-14T04:03:54.664Z,12.90
2018-05-14T04:06:37.083Z,12.90
2018-05-14T04:09:05.395Z,12.80
2018-05-14T04:11:32.914Z,12.90
2018-05-14T04:14:01.295Z,12.90
2018-05-14T04:16:29.550Z,12.90
2018-05-14T04:18:57.024Z,12.80
2018-05-14T04:21:24.512Z,12.90
2018-05-14T04:23:52.029Z,12.90
2018-05-14T04:26:19.556Z,12.90
2018-05-14T04:28:47.055Z,12.90
2018-05-14T04:31:15.314Z,12.80
2018-05-14T04:33:42.823Z,12.80
2018-05-14T04:36:10.303Z,12.90
2018-05-14T04:38:37.837Z,12.90
2018-05-14T04:41:05.337Z,12.90
2018-05-14T04:43:32.851Z,12.90
2018-05-14T04:46:00.363Z,12.90
2018-05-14T04:48:27.871Z,12.90
2018-05-14T04:50:55.354Z,13.00
2018-05-14T04:53:22.823Z,12.90
2018-05-14T04:55:50.325Z,12.90
2018-05-14T04:58:17.833Z,12.90
2018-05-14T05:00:45.343Z,13.00
2018-05-14T05:03:12.871Z,13.00
2018-05-14T05:05:40.393Z,13.10
2018-05-14T05:08:08.493Z,13.10
2018-05-14T05:10:36.021Z,13.00
2018-05-14T05:13:03.513Z,13.10
2018-05-14T05:15:31.035Z,13.10
2018-05-14T05:17:58.514Z,13.10
2018-05-14T05:20:26.035Z,13.10
2018-05-14T05:22:53.586Z,13.10
2018-05-14T05:25:21.101Z,13.00
2018-05-14T05:27:48.591Z,13.10
2018-05-14T05:30:16.883Z,13.20
2018-05-14T05:32:44.352Z,13.20
2018-05-14T05:35:12.293Z,13.30
2018-05-14T05:37:39.882Z,13.40
2018-05-14T05:40:07.291Z,13.50
2018-05-14T05:42:35.570Z,13.60
2018-05-14T05:45:03.059Z,13.50
2018-05-14T05:47:30.571Z,13.60
2018-05-14T05:49:58.089Z,13.60
2018-05-14T05:52:25.647Z,13.80
2018-05-14T05:54:53.081Z,13.90
2018-05-14T05:57:21.370Z,14.20
2018-05-14T05:59:48.852Z,14.10
2018-05-14T06:02:16.380Z,14.20
2018-05-14T06:04:43.864Z,14.30
2018-05-14T06:07:11.360Z,14.50
2018-05-14T06:09:38.828Z,14.50
2018-05-14T06:12:07.112Z,14.90
2018-05-14T06:14:35.366Z,15.10
2018-05-14T06:17:02.933Z,15.10
2018-05-14T06:19:30.429Z,15.20
2018-05-14T06:21:57.928Z,15.40
2018-05-14T06:24:25.453Z,15.40
2018-05-14T06:26:52.940Z,15.30
2018-05-14T06:29:20.459Z,15.40
2018-05-14T06:31:47.937Z,15.50
2018-05-14T06:34:15.437Z,15.60
2018-05-14T06:36:43.047Z,15.70
2018-05-14T06:39:10.549Z,15.90
2018-05-14T06:41:38.033Z,16.00
2018-05-14T06:44:05.566Z,16.10
2018-05-14T06:46:33.056Z,16.10
2018-05-14T06:49:01.657Z,15.90
2018-05-14T06:51:29.249Z,15.90
2018-05-14T06:53:56.867Z,15.80
2018-05-14T06:56:24.351Z,15.70
2018-05-14T06:58:51.833Z,15.70
2018-05-14T07:01:19.345Z,15.70
2018-05-14T07:03:46.826Z,15.70
2018-05-14T07:06:14.369Z,15.80
2018-05-14T07:08:41.899Z,15.90
2018-05-14T07:11:10.177Z,16.00
2018-05-14T07:13:38.429Z,16.00
2018-05-14T07:16:06.035Z,16.00
2018-05-14T07:18:33.528Z,15.90
2018-05-14T07:21:01.825Z,16.00
2018-05-14T07:23:29.302Z,16.00
2018-05-14T07:25:57.574Z,16.00
2018-05-14T07:28:25.060Z,16.10
2018-05-14T07:30:52.576Z,16.10
2018-05-14T07:33:20.261Z,16.10
2018-05-14T07:35:47.609Z,16.20
2018-05-14T07:38:15.098Z,16.30
2018-05-14T07:40:42.581Z,16.40
2018-05-14T07:43:10.143Z,16.60
2018-05-14T07:45:38.352Z,16.80
2018-05-14T07:48:05.867Z,16.70
2018-05-14T07:50:33.331Z,17.00
2018-05-14T07:53:00.831Z,17.20
2018-05-14T07:55:28.306Z,17.40
2018-05-14T07:57:56.608Z,17.90
2018-05-14T08:00:24.244Z,17.80
2018-05-14T08:02:51.656Z,17.90
2018-05-14T08:05:19.123Z,17.90
2018-05-14T08:07:46.640Z,17.80
2018-05-14T08:10:14.106Z,17.90
2018-05-14T08:12:41.608Z,18.10
2018-05-14T08:15:09.074Z,18.20
2018-05-14T08:17:37.300Z,18.70
2018-05-14T08:20:04.799Z,18.70
2018-05-14T08:22:32.276Z,18.90
2018-05-14T08:25:00.541Z,19.30
2018-05-14T08:27:28.797Z,20.00
2018-05-14T08:29:56.309Z,19.90
2018-05-14T08:32:23.801Z,20.30
2018-05-14T08:34:51.316Z,21.10
2018-05-14T08:37:18.804Z,21.80
2018-05-14T08:39:46.287Z,22.00
2018-05-14T08:42:13.764Z,22.00
2018-05-14T08:44:41.626Z,21.90
2018-05-14T08:47:09.869Z,22.20
2018-05-14T08:49:37.350Z,22.20
2018-05-14T08:52:04.857Z,22.90
2018-05-14T08:54:32.392Z,23.40
2018-05-14T08:56:59.837Z,23.80
2018-05-14T08:59:27.365Z,23.80
2018-05-14T09:01:54.862Z,23.70
2018-05-14T09:04:23.097Z,23.40
2018-05-14T09:06:50.585Z,23.30
2018-05-14T09:09:18.827Z,23.80
2018-05-14T09:11:46.371Z,23.70
2018-05-14T09:14:13.839Z,23.90
2018-05-14T09:16:41.349Z,23.90
2018-05-14T09:19:09.581Z,23.40
2018-05-14T09:21:37.081Z,23.40
2018-05-14T09:24:05.318Z,23.60
2018-05-14T09:26:33.201Z,23.60
2018-05-14T09:29:00.675Z,23.80
2018-05-14T09:31:28.920Z,23.30
2018-05-14T09:33:56.435Z,23.30
2018-05-14T09:36:23.904Z,23.20
2018-05-14T09:38:51.410Z,23.40
2018-05-14T09:41:18.891Z,23.80
2018-05-14T09:43:47.170Z,24.60
2018-05-14T09:46:14.649Z,24.60
2018-05-14T09:48:42.909Z,25.40
2018-05-14T09:51:10.389Z,25.40
2018-05-14T09:53:37.888Z,25.90
2018-05-14T09:56:05.376Z,26.20
2018-05-14T09:58:32.881Z,26.50
2018-05-14T10:01:01.187Z,26.10
2018-05-14T10:03:28.767Z,24.90
2018-05-14T10:05:56.196Z,24.60
2018-05-14T10:08:23.673Z,24.40
2018-05-14T10:10:51.945Z,24.00
2018-05-14T10:13:20.196Z,23.60
2018-05-14T10:15:47.688Z,23.60
2018-05-14T10:18:15.162Z,23.50
2018-05-14T10:20:42.651Z,23.60
2018-05-14T10:23:10.139Z,23.70
2018-05-14T10:25:37.632Z,23.90
2018-05-14T10:28:05.103Z,24.00
2018-05-14T10:30:32.594Z,23.80
2018-05-14T10:33:00.089Z,23.70
2018-05-14T10:35:27.861Z,23.70
2018-05-14T10:37:56.091Z,23.60
2018-05-14T10:40:23.588Z,23.60
2018-05-14T10:42:52.518Z,24.30
2018-05-14T10:45:20.021Z,24.30
2018-05-14T10:47:47.480Z,24.10
2018-05-14T10:50:14.986Z,23.90
2018-05-14T10:52:42.513Z,24.20
2018-05-14T10:55:10.747Z,24.60
2018-05-14T10:57:38.239Z,24.60
2018-05-14T11:00:06.485Z,25.00
2018-05-14T11:02:33.983Z,25.00
2018-05-14T11:05:02.216Z,25.20
2018-05-14T11:07:29.703Z,25.20
2018-05-14T11:09:57.247Z,25.50
2018-05-14T11:12:24.750Z,25.80
2018-05-14T11:14:52.212Z,25.30
2018-05-14T11:17:19.707Z,26.70
2018-05-14T11:19:47.169Z,27.60
2018-05-14T11:22:14.705Z,28.40
2018-05-14T11:24:42.162Z,29.30
2018-05-14T11:27:09.628Z,30.30
2018-05-14T11:29:37.127Z,30.20
2018-05-14T11:32:05.398Z,29.50
2018-05-14T11:34:32.922Z,29.50
2018-05-14T11:37:00.396Z,29.20
2018-05-14T11:39:27.892Z,29.40
2018-05-14T11:41:55.368Z,29.50
2018-05-14T11:44:22.878Z,29.60
2018-05-14T11:46:50.349Z,29.80
2018-05-14T11:49:18.639Z,28.90
2018-05-14T11:51:46.900Z,28.70
2018-05-14T11:54:15.227Z,28.50
2018-05-14T11:56:42.763Z,28.40
2018-05-14T11:59:10.189Z,28.60
2018-05-14T12:01:38.515Z,29.40
2018-05-14T12:04:06.034Z,29.40
2018-05-14T12:06:34.308Z,29.10
2018-05-14T12:09:02.552Z,29.60
2018-05-14T12:11:30.050Z,29.60
2018-05-14T12:13:58.299Z,29.10
2018-05-14T12:16:25.838Z,29.10
2018-05-14T12:18:53.289Z,29.00
2018-05-14T12:21:20.799Z,29.00
2018-05-14T12:23:48.272Z,29.00
2018-05-14T12:26:15.799Z,28.70
2018-05-14T12:28:44.048Z,28.00
2018-05-14T12:31:11.520Z,28.00
2018-05-14T12:33:39.023Z,28.00
2018-05-14T12:36:06.487Z,28.00
2018-05-14T12:38:34.015Z,27.90
2018-05-14T12:41:01.558Z,27.70
2018-05-14T12:43:29.049Z,27.80
2018-05-14T12:45:56.529Z,27.60
2018-05-14T12:48:24.029Z,27.80
2018-05-14T12:50:51.522Z,27.70
2018-05-14T12:53:19.758Z,27.70
2018-05-14T12:55:47.234Z,27.70
2018-05-14T12:58:15.589Z,27.50
2018-05-14T13:00:43.056Z,27.40
2018-05-14T13:03:10.646Z,26.70
2018-05-14T13:05:38.881Z,25.40
2018-05-14T13:08:06.395Z,25.30
2018-05-14T13:10:33.875Z,24.90
2018-05-14T13:13:01.491Z,24.90
2018-05-14T13:15:28.933Z,25.00
2018-05-14T13:17:57.170Z,24.80
2018-05-14T13:20:24.680Z,24.80
2018-05-14T13:22:52.969Z,24.70
2018-05-14T13:25:20.467Z,24.70
2018-05-14T13:27:47.932Z,24.70
2018-05-14T13:30:15.428Z,24.70
2018-05-14T13:32:43.677Z,24.10
2018-05-14T13:35:11.182Z,24.10
2018-05-14T13:37:38.680Z,24.10
2018-05-14T13:40:06.179Z,23.20
2018-05-14T13:42:34.214Z,23.60
2018-05-14T13:45:01.725Z,23.30
2018-05-14T13:47:29.197Z,23.00
2018-05-14T13:49:56.692Z,22.70
2018-05-14T13:52:24.172Z,22.50
2018-05-14T13:54:52.434Z,22.10
2018-05-14T13:57:19.946Z,22.10
2018-05-14T13:59:47.669Z,21.90
2018-05-14T14:02:15.982Z,21.50
2018-05-14T14:04:43.483Z,21.40
2018-05-14T14:07:11.086Z,21.20
2018-05-14T14:09:38.567Z,20.80
2018-05-14T14:12:06.084Z,20.70
2018-05-14T14:14:33.574Z,20.60
2018-05-14T14:17:01.511Z,20.50
2018-05-14T14:19:28.985Z,20.50
2018-05-14T14:21:56.483Z,20.50
2018-05-14T14:24:24.032Z,20.40
2018-05-14T14:26:51.482Z,20.40
2018-05-14T14:29:18.954Z,20.30
2018-05-14T14:31:46.470Z,20.10
2018-05-14T14:34:14.703Z,19.70
2018-05-14T14:36:42.956Z,19.40
2018-05-14T14:39:10.439Z,19.40
2018-05-14T14:41:37.955Z,19.20
2018-05-14T14:44:05.459Z,18.90
2018-05-14T14:46:32.999Z,18.70
2018-05-14T14:49:00.500Z,18.50
2018-05-14T14:51:28.787Z,18.20
2018-05-14T14:53:56.635Z,18.10
2018-05-14T14:56:24.131Z,18.10
2018-05-14T14:58:51.639Z,18.20
2018-05-14T15:01:19.174Z,18.20
2018-05-14T15:03:46.711Z,18.30
2018-05-14T15:06:14.269Z,18.40
2018-05-14T15:08:41.810Z,18.60
2018-05-14T15:11:10.071Z,18.90
2018-05-14T15:13:38.381Z,19.00
2018-05-14T15:16:05.867Z,19.00
2018-05-14T15:18:33.394Z,19.20
2018-05-14T15:21:00.906Z,19.30
2018-05-14T15:23:28.443Z,19.40
2018-05-14T15:25:55.948Z,19.50
2018-05-14T15:28:24.200Z,19.50
2018-05-14T15:30:51.731Z,19.50
2018-05-14T15:33:19.226Z,19.60
2018-05-14T15:35:47.533Z,19.40
2018-05-14T15:38:15.865Z,19.40
2018-05-14T15:40:43.579Z,19.30
2018-05-14T15:43:11.885Z,19.50
2018-05-14T15:45:39.399Z,19.70
2018-05-14T15:48:06.917Z,19.80
2018-05-14T15:50:34.504Z,20.00
2018-05-14T15:53:01.984Z,20.20
2018-05-14T15:55:29.504Z,20.40
2018-05-14T15:57:56.996Z,20.70
2018-05-14T16:00:24.790Z,20.70
2018-05-14T16:02:52.291Z,20.80
2018-05-14T16:05:19.813Z,20.90
2018-05-14T16:07:47.337Z,21.10
2018-05-14T16:10:14.867Z,21.10
2018-05-14T16:12:42.430Z,21.10
2018-05-14T16:15:09.907Z,21.20
2018-05-14T16:17:37.527Z,21.10
2018-05-14T16:20:05.041Z,21.10
2018-05-14T16:22:32.564Z,21.20
2018-05-14T16:25:00.052Z,21.40
2018-05-14T16:27:27.582Z,21.50
2018-05-14T16:29:55.186Z,21.70
2018-05-14T16:32:22.700Z,21.80
2018-05-14T16:34:50.181Z,21.90
2018-05-14T16:37:18.489Z,21.90
2018-05-14T16:39:45.965Z,21.90
2018-05-14T16:42:13.506Z,21.80
2018-05-14T16:44:41.010Z,21.60
2018-05-14T16:47:08.540Z,21.30
2018-05-14T16:49:36.026Z,21.20
2018-05-14T16:52:03.507Z,21.10
2018-05-14T16:54:31.020Z,21.00
2018-05-14T16:56:58.513Z,20.80
2018-05-14T16:59:26.811Z,20.70
2018-05-14T17:01:54.284Z,20.70
2018-05-14T17:04:21.971Z,20.10
2018-05-14T17:06:49.436Z,19.40
2018-05-14T17:09:16.942Z,18.80
2018-05-14T17:11:44.417Z,18.40
2018-05-14T17:14:11.916Z,18.10
2018-05-14T17:16:39.414Z,17.80
2018-05-14T17:19:06.936Z,17.70
2018-05-14T17:21:34.439Z,17.60
2018-05-14T17:24:01.963Z,17.60
2018-05-14T17:26:29.502Z,17.60
2018-05-14T17:28:57.006Z,17.50
2018-05-14T17:31:24.480Z,17.50
2018-05-14T17:33:52.106Z,17.50
2018-05-14T17:36:20.401Z,17.40
2018-05-14T17:38:47.916Z,17.40
2018-05-14T17:41:15.414Z,17.40
2018-05-14T17:43:43.670Z,17.10
2018-05-14T17:46:11.232Z,17.10
2018-05-14T17:48:39.502Z,17.00
2018-05-14T17:51:07.074Z,17.00
2018-05-14T17:53:35.356Z,16.70
2018-05-14T17:56:02.896Z,16.70
2018-05-14T17:58:30.438Z,16.70
2018-05-14T18:00:57.953Z,16.70
2018-05-14T18:03:25.495Z,16.70
2018-05-14T18:05:53.032Z,16.60
2018-05-14T18:08:20.520Z,16.60
2018-05-14T18:10:48.070Z,16.50
2018-05-14T18:13:15.493Z,16.40
2018-05-14T18:15:43.037Z,16.30
2018-05-14T18:18:10.532Z,16.30
2018-05-14T18:20:38.076Z,16.30
2018-05-14T18:23:05.592Z,16.30
2018-05-14T18:25:38.809Z,16.20
2018-05-14T18:28:08.113Z,16.20
2018-05-14T18:30:39.518Z,16.20
2018-05-14T18:33:10.979Z,16.20
2018-05-14T18:35:54.406Z,16.20
2018-05-14T18:38:21.904Z,16.20
2018-05-14T18:40:49.399Z,16.10
2018-05-14T18:43:17.668Z,16.10
2018-05-14T18:45:45.906Z,16.00
2018-05-14T18:48:13.432Z,16.00
2018-05-14T18:50:40.901Z,16.00
2018-05-14T18:53:08.400Z,15.90
2018-05-14T18:55:35.920Z,15.90
2018-05-14T18:58:03.435Z,15.80
2018-05-14T19:00:31.687Z,15.70
2018-05-14T19:02:59.226Z,15.70
2018-05-14T19:05:27.477Z,15.60
2018-05-14T19:07:55.096Z,15.60
2018-05-14T19:10:29.062Z,15.50
2018-05-14T19:12:56.580Z,15.50
2018-05-14T19:15:29.804Z,15.40
2018-05-14T19:18:00.233Z,15.30
2018-05-14T19:20:27.714Z,15.30
2018-05-14T19:23:00.991Z,15.30
2018-05-14T19:25:28.503Z,15.30
2018-05-14T19:28:02.417Z,15.30
2018-05-14T19:30:30.667Z,15.30
2018-05-14T19:32:58.156Z,15.30
2018-05-14T19:35:45.092Z,15.30
2018-05-14T19:38:12.607Z,15.30
2018-05-14T19:40:45.798Z,15.30
2018-05-14T19:43:13.320Z,15.40
2018-05-14T19:45:40.810Z,15.40
2018-05-14T19:48:08.334Z,15.40
2018-05-14T19:50:35.857Z,15.40
2018-05-14T19:53:03.302Z,15.40
2018-05-14T19:55:31.589Z,15.40
2018-05-14T19:57:59.096Z,15.40
2018-05-14T20:00:26.607Z,15.30
2018-05-14T20:02:54.111Z,15.30
2018-05-14T20:05:21.615Z,15.20
2018-05-14T20:07:49.851Z,15.20
2018-05-14T20:10:17.360Z,15.20
2018-05-14T20:12:44.847Z,15.20
2018-05-14T20:15:12.392Z,15.20
2018-05-14T20:17:39.884Z,15.20
2018-05-14T20:20:07.469Z,15.20
2018-05-14T20:22:34.888Z,15.10
2018-05-14T20:25:02.413Z,15.20
2018-05-14T20:27:29.904Z,15.20
2018-05-14T20:29:57.404Z,15.10
2018-05-14T20:32:25.663Z,15.10
2018-05-14T20:34:53.147Z,15.10
2018-05-14T20:37:21.528Z,15.00
2018-05-14T20:39:49.201Z,15.00
2018-05-14T20:42:17.483Z,15.00
2018-05-14T20:44:44.951Z,15.00
2018-05-14T20:47:12.459Z,15.00
2018-05-14T20:49:39.942Z,15.00
2018-05-14T20:52:08.238Z,15.00
2018-05-14T20:54:35.709Z,15.00
2018-05-14T20:57:03.240Z,15.00
2018-05-14T20:59:30.711Z,15.00
2018-05-14T21:01:58.244Z,15.00
2018-05-14T21:04:26.485Z,15.00
2018-05-14T21:06:53.996Z,15.00
2018-05-14T21:09:21.495Z,15.00
2018-05-14T21:11:49.011Z,15.00
2018-05-14T21:14:16.494Z,14.90
2018-05-14T21:16:44.038Z,14.90
2018-05-14T21:19:11.524Z,14.90
2018-05-14T21:21:39.011Z,14.90
2018-05-14T21:24:06.519Z,14.90
2018-05-14T21:26:34.001Z,14.90
2018-05-14T21:29:01.518Z,14.90
2018-05-14T21:31:29.008Z,14.90
2018-05-14T21:33:56.519Z,14.80
2018-05-14T21:36:24.765Z,14.80
2018-05-14T21:38:52.276Z,14.70
2018-05-14T21:41:19.796Z,14.70
2018-05-14T21:43:48.083Z,14.70
2018-05-14T21:46:16.331Z,14.60
2018-05-14T21:48:43.868Z,14.60
2018-05-14T21:51:11.338Z,14.60
2018-05-14T21:53:38.834Z,14.60
2018-05-14T21:56:07.097Z,14.40
2018-05-14T21:58:34.586Z,14.40
2018-05-14T22:01:02.076Z,14.40
2018-05-14T22:03:29.908Z,14.30
2018-05-14T22:05:58.187Z,14.30
2018-05-14T22:08:25.738Z,14.30
2018-05-14T22:10:53.248Z,14.20
2018-05-14T22:13:20.730Z,14.20
2018-05-14T22:15:48.252Z,14.20
2018-05-14T22:18:15.775Z,14.10
2018-05-14T22:20:43.292Z,14.10
2018-05-14T22:23:10.769Z,14.00
2018-05-14T22:25:39.075Z,13.80
2018-05-14T22:28:06.544Z,13.80
2018-05-14T22:30:34.059Z,13.70
2018-05-14T22:33:02.303Z,13.60
2018-05-14T22:35:29.817Z,13.60
2018-05-14T22:37:57.314Z,13.50
2018-05-14T22:40:24.831Z,13.40
2018-05-14T22:42:53.091Z,13.30
2018-05-14T22:45:21.372Z,13.20
2018-05-14T22:47:49.612Z,13.10
2018-05-14T22:50:17.169Z,13.10
2018-05-14T22:52:44.618Z,13.00
2018-05-14T22:55:12.104Z,12.90
2018-05-14T22:57:39.614Z,12.90
2018-05-14T23:00:07.103Z,12.80
2018-05-14T23:02:34.615Z,12.70
2018-05-14T23:05:02.100Z,12.70
2018-05-14T23:07:29.607Z,12.60
2018-05-14T23:09:57.856Z,12.50
2018-05-14T23:12:25.373Z,12.50
2018-05-14T23:14:52.853Z,12.40
2018-05-14T23:17:20.357Z,12.30
2018-05-14T23:19:48.629Z,12.20
2018-05-14T23:22:16.164Z,12.20
2018-05-14T23:24:43.643Z,12.10
2018-05-14T23:27:11.152Z,12.10
2018-05-14T23:29:38.625Z,12.10
2018-05-14T23:32:06.133Z,12.00
2018-05-14T23:34:34.391Z,12.00
2018-05-14T23:37:01.926Z,12.00
2018-05-14T23:39:29.425Z,11.90
2018-05-14T23:41:57.665Z,11.80
2018-05-14T23:44:25.178Z,11.80
2018-05-14T23:46:52.663Z,11.70
2018-05-14T23:49:20.174Z,11.70
2018-05-14T23:51:48.429Z,11.60
2018-05-14T23:54:15.948Z,11.60
2018-05-14T23:56:43.434Z,11.50
2018-05-14T23:59:10.966Z,11.50
